Time;durP1;ratioP1;P1;durP2;ratioP2;P2;SDS_P1;SDS_P2;PMS_P1;PMS_P2;Temp;Humidity;BMP_temperature;BMP_pressure;BME280_temperature;BME280_humidity;BME280_pressure;Samples;Min_cycle;Max_cycle;Signal;HPM_P1;HPM_P2
2023/01/30 00:01:45;;;;;;;16.63;9.03;;;;;;;1.41;100.00;100439.28;4952189;28;20074;-83
2023/01/30 00:04:12;;;;;;;14.10;8.57;;;;;;;1.46;100.00;100432.44;4950360;28;20101;-82
2023/01/30 00:06:42;;;;;;;16.70;9.13;;;;;;;1.47;100.00;100435.91;4936672;28;20146;-83
2023/01/30 00:09:12;;;;;;;14.33;8.23;;;;;;;1.48;100.00;100433.31;4942949;28;20536;-83
2023/01/30 00:11:39;;;;;;;16.00;8.13;;;;;;;1.42;100.00;100415.88;4941788;28;20051;-84
2023/01/30 00:14:06;;;;;;;13.97;8.03;;;;;;;1.49;100.00;100402.94;4946535;28;20066;-82
2023/01/30 00:16:34;;;;;;;14.40;8.50;;;;;;;1.51;100.00;100396.91;4959012;28;20082;-83
2023/01/30 00:19:01;;;;;;;14.47;8.20;;;;;;;1.48;100.00;100381.25;4967156;28;20046;-84
2023/01/30 00:21:30;;;;;;;15.00;8.23;;;;;;;1.50;100.00;100360.44;4951746;28;20050;-82
2023/01/30 00:23:59;;;;;;;14.80;8.20;;;;;;;1.52;100.00;100344.00;4967517;28;20089;-82
2023/01/30 00:26:26;;;;;;;14.67;9.10;;;;;;;1.50;100.00;100322.25;4969184;28;20500;-84
2023/01/30 00:28:53;;;;;;;16.50;9.27;;;;;;;1.47;100.00;100306.63;4941684;28;20670;-84
2023/01/30 00:31:19;;;;;;;16.70;7.80;;;;;;;1.50;100.00;100300.56;4958876;28;20034;-81
2023/01/30 00:33:46;;;;;;;17.87;9.00;;;;;;;1.46;100.00;100302.28;4943275;28;20057;-83
2023/01/30 00:36:13;;;;;;;13.70;7.13;;;;;;;1.44;100.00;100308.31;4959391;28;20039;-83
2023/01/30 00:38:40;;;;;;;16.13;7.70;;;;;;;1.41;100.00;100303.94;4944472;28;20054;-83
2023/01/30 00:41:06;;;;;;;15.57;7.93;;;;;;;1.34;100.00;100289.97;4943850;28;20199;-82
2023/01/30 00:49:31;;;;;;;17.40;9.20;;;;;;;1.27;100.00;100256.97;4949865;28;20508;-84
2023/01/30 00:51:58;;;;;;;15.60;8.90;;;;;;;1.31;100.00;100244.84;4941331;28;20055;-83
2023/01/30 00:54:25;;;;;;;17.67;8.80;;;;;;;1.29;100.00;100233.56;4938745;28;20059;-83
2023/01/30 00:56:52;;;;;;;15.53;8.53;;;;;;;1.24;100.00;100237.81;4951489;28;20046;-84
2023/01/30 00:59:18;;;;;;;17.73;8.87;;;;;;;1.26;100.00;100223.09;4937266;28;20567;-82
2023/01/30 01:01:45;;;;;;;17.83;9.43;;;;;;;1.13;100.00;100215.19;4951175;28;20066;-82
2023/01/30 01:04:12;;;;;;;19.70;10.00;;;;;;;1.09;100.00;100200.41;4959115;28;20049;-84
2023/01/30 01:06:39;;;;;;;17.83;10.30;;;;;;;1.08;100.00;100183.03;4940788;28;20528;-84
2023/01/30 01:09:06;;;;;;;18.63;10.00;;;;;;;0.99;100.00;100195.94;4941816;28;20043;-84
2023/01/30 01:11:33;;;;;;;17.77;9.27;;;;;;;0.98;100.00;100186.41;4951726;28;20039;-82
2023/01/30 01:14:01;;;;;;;18.23;8.53;;;;;;;1.03;100.00;100189.06;4936627;28;20641;-82
2023/01/30 01:16:28;;;;;;;30.23;10.30;;;;;;;1.06;100.00;100166.53;4957120;28;20050;-81
2023/01/30 01:18:55;;;;;;;18.23;9.53;;;;;;;1.10;100.00;100159.66;4958724;28;20039;-83
2023/01/30 01:21:22;;;;;;;18.53;9.67;;;;;;;1.04;100.00;100176.06;4959554;28;20122;-85
2023/01/30 01:23:57;;;;;;;17.10;9.30;;;;;;;1.05;100.00;100164.78;4951758;28;20054;-82
2023/01/30 01:26:25;;;;;;;23.23;10.57;;;;;;;1.11;100.00;100154.47;4983491;28;20058;-85
2023/01/30 01:28:56;;;;;;;24.43;10.77;;;;;;;1.13;100.00;100146.66;4972994;28;20504;-83
2023/01/30 01:31:23;;;;;;;20.73;10.37;;;;;;;1.11;100.00;100182.22;4982926;28;20049;-84
2023/01/30 01:33:50;;;;;;;19.87;9.43;;;;;;;1.14;100.00;100174.41;4952821;28;20050;-84
2023/01/30 01:36:17;;;;;;;19.07;9.13;;;;;;;1.15;100.00;100160.56;4935963;28;20043;-80
2023/01/30 01:39:03;;;;;;;17.67;9.40;;;;;;;1.13;100.00;100165.75;4944736;28;20544;-82
2023/01/30 01:41:30;;;;;;;22.33;11.83;;;;;;;1.17;100.00;100163.16;4941126;28;20039;-85
2023/01/30 01:44:05;;;;;;;19.37;9.87;;;;;;;1.19;100.00;100151.94;4937569;28;20566;-83
2023/01/30 01:46:47;;;;;;;21.23;10.90;;;;;;;1.13;100.00;100160.53;4970108;28;20045;-83
2023/01/30 01:49:28;;;;;;;22.13;10.27;;;;;;;1.19;100.00;100143.25;4967387;28;20043;-84
2023/01/30 01:51:59;;;;;;;18.23;10.33;;;;;;;1.17;100.00;100130.22;4945740;28;20063;-83
2023/01/30 01:54:32;;;;;;;19.00;9.87;;;;;;;1.17;100.00;100130.22;4945982;28;20047;-82
2023/01/30 01:57:02;;;;;;;19.97;11.03;;;;;;;1.18;100.00;100121.56;4935403;28;20042;-82
2023/01/30 01:59:34;;;;;;;18.83;10.23;;;;;;;1.21;100.00;100097.31;4937031;28;20050;-83
2023/01/30 02:02:05;;;;;;;18.83;10.37;;;;;;;1.16;100.00;100083.38;4953605;28;20547;-81
2023/01/30 02:07:19;;;;;;;20.10;10.33;;;;;;;1.15;100.00;100084.22;4964127;28;20039;-82
2023/01/30 02:09:46;;;;;;;20.10;10.03;;;;;;;1.16;100.00;100075.56;4954713;28;20089;-83
2023/01/30 02:12:13;;;;;;;24.13;10.93;;;;;;;1.13;100.00;100060.81;4935699;28;20039;-81
2023/01/30 02:14:40;;;;;;;21.00;10.23;;;;;;;1.19;100.00;100071.28;4987811;28;20047;-81
2023/01/30 02:17:07;;;;;;;23.33;11.93;;;;;;;1.20;100.00;100060.00;4972229;28;20043;-82
2023/01/30 02:19:46;;;;;;;20.30;11.50;;;;;;;1.22;100.00;100042.66;4947571;28;20043;-82
2023/01/30 02:22:34;;;;;;;20.40;10.67;;;;;;;1.18;100.00;100040.00;4965843;28;20504;-81
2023/01/30 02:25:29;;;;;;;19.80;10.60;;;;;;;1.20;100.00;100028.78;4962758;28;20174;-81
2023/01/30 02:28:19;;;;;;;23.40;11.50;;;;;;;1.23;100.00;100017.53;4963281;28;20552;-82
2023/01/30 02:31:06;;;;;;;23.57;11.33;;;;;;;1.20;100.00;100034.00;4954646;28;20061;-82
2023/01/30 02:33:54;;;;;;;22.03;10.83;;;;;;;1.24;100.00;100033.13;4953075;28;20047;-82
2023/01/30 02:36:58;;;;;;;22.23;11.30;;;;;;;1.20;100.00;100051.34;4983812;28;20607;-83
2023/01/30 02:39:47;;;;;;;26.27;13.27;;;;;;;1.22;100.00;100044.41;4961960;28;20573;-82
2023/01/30 02:42:22;;;;;;;22.87;11.63;;;;;;;1.21;100.00;100033.13;4956497;28;20528;-81
2023/01/30 02:45:20;;;;;;;20.87;10.73;;;;;;;1.13;100.00;100016.59;4964737;28;20038;-82
2023/01/30 02:48:13;;;;;;;26.13;11.90;;;;;;;1.19;100.00;100008.84;4954647;28;20109;-83
2023/01/30 02:50:52;;;;;;;22.27;11.37;;;;;;;1.23;100.00;100009.72;4970672;28;20047;-82
2023/01/30 02:53:19;;;;;;;20.37;10.63;;;;;;;1.24;100.00;100012.31;4965103;28;20098;-83
2023/01/30 02:55:45;;;;;;;23.93;12.73;;;;;;;1.24;100.00;100020.13;4939616;28;20110;-83
2023/01/30 02:58:12;;;;;;;25.97;12.53;;;;;;;1.26;100.00;99999.31;4955479;28;20055;-81
2023/01/30 03:00:51;;;;;;;24.77;12.23;;;;;;;1.24;100.00;99990.63;4954808;28;20472;-83
2023/01/30 03:03:40;;;;;;;26.60;12.60;;;;;;;1.21;100.00;99981.09;4968916;28;20046;-82
2023/01/30 03:06:31;;;;;;;24.27;12.67;;;;;;;1.20;100.00;99961.13;4961033;28;20097;-80
2023/01/30 03:09:14;;;;;;;24.83;12.27;;;;;;;1.19;100.00;99962.00;4950585;28;20050;-82
2023/01/30 03:12:07;;;;;;;24.13;12.10;;;;;;;1.16;100.00;99972.38;4968125;28;20043;-85
2023/01/30 03:14:57;;;;;;;23.60;12.20;;;;;;;1.16;100.00;99966.31;4954211;28;20051;-83
2023/01/30 03:17:25;;;;;;;27.10;13.67;;;;;;;1.07;100.00;99964.50;4960888;28;20045;-82
2023/01/30 03:19:54;;;;;;;28.27;12.97;;;;;;;1.06;100.00;99950.63;4956516;28;20488;-82
2023/01/30 03:22:21;;;;;;;28.93;13.23;;;;;;;1.11;100.00;99946.34;4955498;28;20054;-85
2023/01/30 03:24:49;;;;;;;28.40;13.23;;;;;;;1.17;100.00;99934.22;4951960;28;20047;-84
2023/01/30 03:27:15;;;;;;;29.00;13.80;;;;;;;1.12;100.00;99931.59;4957820;28;20034;-82
2023/01/30 03:29:42;;;;;;;27.20;12.53;;;;;;;1.15;100.00;99923.81;4941601;28;20045;-82
2023/01/30 03:32:08;;;;;;;28.40;13.67;;;;;;;1.19;100.00;99909.97;4957566;28;20097;-82
2023/01/30 03:34:35;;;;;;;24.40;13.80;;;;;;;1.17;100.00;99913.41;4957412;28;20051;-82
2023/01/30 03:37:03;;;;;;;28.33;14.07;;;;;;;1.21;100.00;99905.63;4956424;28;20043;-81
2023/01/30 03:39:29;;;;;;;26.23;13.30;;;;;;;1.17;100.00;99911.66;4957316;28;20105;-82
2023/01/30 03:41:57;;;;;;;30.77;13.27;;;;;;;1.22;100.00;99902.16;4956038;28;20046;-85
2023/01/30 03:44:24;;;;;;;28.07;13.43;;;;;;;1.24;100.00;99892.63;4957010;28;20125;-79
2023/01/30 03:46:51;;;;;;;27.17;12.60;;;;;;;1.24;100.00;99879.63;4953315;28;20042;-80
2023/01/30 03:49:17;;;;;;;25.77;14.43;;;;;;;1.27;100.00;99882.25;4957857;28;20130;-80
2023/01/30 03:51:44;;;;;;;30.23;13.50;;;;;;;1.18;100.00;99877.00;4953303;28;20043;-79
2023/01/30 03:54:10;;;;;;;28.07;13.57;;;;;;;1.22;100.00;99875.28;4971802;28;20568;-80
2023/01/30 03:56:37;;;;;;;28.53;14.67;;;;;;;1.27;100.00;99869.25;4955660;28;20551;-80
2023/01/30 03:59:04;;;;;;;32.07;14.70;;;;;;;1.35;100.00;99871.88;4956871;28;20042;-80
2023/01/30 04:01:30;;;;;;;31.37;14.00;;;;;;;1.31;100.00;99859.72;4956262;28;20095;-78
2023/01/30 04:03:57;;;;;;;27.37;14.10;;;;;;;1.32;100.00;99856.25;4957073;28;20062;-80
2023/01/30 04:06:24;;;;;;;29.00;14.40;;;;;;;1.37;100.00;99850.19;4972555;28;20105;-80
2023/01/30 04:08:53;;;;;;;25.53;14.47;;;;;;;1.35;100.00;99845.84;4941089;28;20516;-80
2023/01/30 04:11:20;;;;;;;26.73;14.13;;;;;;;1.32;100.00;99836.28;4956993;28;20151;-83
2023/01/30 04:13:47;;;;;;;29.40;14.03;;;;;;;1.41;100.00;99832.84;4940946;28;20046;-79
2023/01/30 04:16:19;;;;;;;30.40;14.37;;;;;;;1.40;100.00;99824.16;4956716;28;20047;-81
2023/01/30 04:18:46;;;;;;;29.23;14.43;;;;;;;1.36;100.00;99824.19;4972753;28;20050;-80
2023/01/30 04:21:13;;;;;;;26.77;15.53;;;;;;;1.39;100.00;99824.16;4972471;28;20046;-81
2023/01/30 04:23:40;;;;;;;26.87;14.50;;;;;;;1.43;100.00;99818.13;4947110;28;20047;-80
2023/01/30 04:26:07;;;;;;;28.83;14.33;;;;;;;1.43;100.00;99815.53;4940373;28;20051;-81
2023/01/30 04:28:34;;;;;;;26.83;14.47;;;;;;;1.44;100.00;99805.97;4939555;28;20105;-82
2023/01/30 04:31:01;;;;;;;30.07;15.40;;;;;;;1.43;100.00;99797.31;4939334;28;20043;-81
2023/01/30 04:33:27;;;;;;;33.00;14.90;;;;;;;1.37;100.00;99805.97;4939906;28;20129;-81
2023/01/30 04:35:58;;;;;;;31.50;14.57;;;;;;;1.48;100.00;99802.50;4954758;28;20090;-83
2023/01/30 04:38:26;;;;;;;29.20;14.13;;;;;;;1.48;100.00;99798.16;4952247;28;20492;-82
2023/01/30 04:40:55;;;;;;;23.70;13.67;;;;;;;1.45;100.00;99797.31;4971535;28;20424;-82
2023/01/30 04:43:23;;;;;;;29.43;14.93;;;;;;;1.42;100.00;99793.81;4955932;28;20128;-82
2023/01/30 04:45:50;;;;;;;27.90;13.80;;;;;;;1.45;100.00;99787.75;4970954;28;20046;-82
2023/01/30 04:48:17;;;;;;;29.80;15.13;;;;;;;1.50;100.00;99792.97;4970206;28;20046;-81
2023/01/30 04:50:47;;;;;;;30.50;15.07;;;;;;;1.51;100.00;99782.53;4939868;28;20508;-82
2023/01/30 04:53:15;;;;;;;29.87;13.63;;;;;;;1.53;100.00;99778.22;4939659;28;20050;-80
2023/01/30 04:55:41;;;;;;;27.23;13.70;;;;;;;1.44;100.00;99767.81;4954877;28;20046;-82
2023/01/30 04:58:08;;;;;;;27.70;13.73;;;;;;;1.51;100.00;99766.06;4970952;28;20046;-80
2023/01/30 05:00:35;;;;;;;31.47;14.90;;;;;;;1.50;100.00;99770.41;4929259;28;20043;-83
2023/01/30 05:03:01;;;;;;;31.60;15.70;;;;;;;1.57;100.00;99758.28;4983957;28;20090;-82
2023/01/30 05:05:29;;;;;;;28.97;14.43;;;;;;;1.52;100.00;99757.41;4964575;28;20133;-81
2023/01/30 05:07:55;;;;;;;28.17;14.37;;;;;;;1.53;100.00;99761.75;4952859;28;20038;-82
2023/01/30 05:10:22;;;;;;;31.27;14.17;;;;;;;1.61;100.00;99766.09;4947585;28;20038;-83
2023/01/30 05:12:49;;;;;;;27.57;14.97;;;;;;;1.60;100.00;99759.16;4947481;28;20476;-82
2023/01/30 05:15:15;;;;;;;25.60;14.30;;;;;;;1.68;100.00;99752.22;4938046;28;20043;-83
2023/01/30 05:17:42;;;;;;;26.90;14.03;;;;;;;1.73;100.00;99744.41;4939068;28;20050;-83
2023/01/30 05:20:12;;;;;;;29.90;14.10;;;;;;;1.71;100.00;99753.09;4971579;28;20046;-83
2023/01/30 05:22:38;;;;;;;24.93;12.43;;;;;;;1.69;100.00;99740.94;4955407;28;20484;-85
2023/01/30 05:25:05;;;;;;;26.17;14.50;;;;;;;1.78;100.00;99741.81;4950701;28;20065;-83
2023/01/30 05:27:32;;;;;;;28.17;13.87;;;;;;;1.78;100.00;99731.41;4955046;28;20046;-82
2023/01/30 05:29:59;;;;;;;25.17;13.27;;;;;;;1.78;100.00;99720.97;4944093;28;20543;-83
2023/01/30 05:32:29;;;;;;;24.87;13.73;;;;;;;1.86;100.00;99717.50;4952302;28;20493;-83
2023/01/30 05:34:56;;;;;;;24.43;12.23;;;;;;;1.88;100.00;99714.91;4946806;28;20047;-82
2023/01/30 05:37:23;;;;;;;27.83;12.93;;;;;;;1.89;100.00;99712.28;4954700;28;20057;-82
2023/01/30 05:39:50;;;;;;;24.73;12.97;;;;;;;1.93;100.00;99718.34;4938540;28;20081;-82
2023/01/30 05:42:17;;;;;;;21.20;12.03;;;;;;;1.93;100.00;99715.75;4944322;28;20050;-81
2023/01/30 05:44:43;;;;;;;22.97;12.80;;;;;;;2.01;100.00;99710.53;4955272;28;20066;-84
2023/01/30 05:47:10;;;;;;;27.60;13.93;;;;;;;2.07;100.00;99708.78;4956089;28;20038;-83
2023/01/30 05:49:37;;;;;;;24.60;13.47;;;;;;;2.04;100.00;99714.00;4955412;28;20055;-83
2023/01/30 05:52:03;;;;;;;22.57;11.67;;;;;;;2.14;100.00;99701.84;4970239;28;20038;-83
2023/01/30 05:54:30;;;;;;;24.37;12.17;;;;;;;2.15;100.00;99707.03;4955087;28;20126;-83
2023/01/30 05:56:57;;;;;;;22.50;11.50;;;;;;;2.16;100.00;99692.28;4954336;28;20043;-84
2023/01/30 05:59:23;;;;;;;25.23;12.97;;;;;;;2.16;100.00;99687.94;4954586;28;20101;-83
2023/01/30 06:01:50;;;;;;;23.47;12.60;;;;;;;2.20;100.00;99684.47;4953078;28;20030;-83
2023/01/30 06:04:16;;;;;;;22.50;11.63;;;;;;;2.25;100.00;99682.69;4967917;28;20035;-82
2023/01/30 06:06:43;;;;;;;24.27;13.07;;;;;;;2.19;100.00;99687.06;4987275;23;20661;-79
2023/01/30 06:09:10;;;;;;;23.70;12.03;;;;;;;2.28;100.00;99680.97;4959495;28;20050;-78
2023/01/30 06:11:37;;;;;;;21.93;12.40;;;;;;;2.30;100.00;99687.91;4972877;28;20039;-78
2023/01/30 06:14:03;;;;;;;25.93;12.97;;;;;;;2.35;100.00;99669.63;4968548;28;20046;-79
2023/01/30 06:16:30;;;;;;;22.80;13.40;;;;;;;2.34;100.00;99676.59;4956452;28;20035;-78
2023/01/30 06:18:57;;;;;;;26.90;12.90;;;;;;;2.39;100.00;99669.63;4972039;28;20030;-78
2023/01/30 06:21:23;;;;;;;30.00;14.33;;;;;;;2.43;100.00;99667.88;4976515;28;20396;-78
2023/01/30 06:23:53;;;;;;;22.73;12.07;;;;;;;2.42;100.00;99666.13;4977206;28;20178;-79
2023/01/30 06:26:19;;;;;;;29.77;13.77;;;;;;;2.42;100.00;99668.75;4979060;28;20035;-77
2023/01/30 06:28:47;;;;;;;26.83;14.33;;;;;;;2.45;100.00;99677.44;4947305;28;20125;-78
2023/01/30 06:31:13;;;;;;;28.57;14.03;;;;;;;2.47;100.00;99669.59;4937241;28;20092;-78
2023/01/30 06:33:40;;;;;;;29.83;14.93;;;;;;;2.52;100.00;99668.72;4962068;28;20108;-78
2023/01/30 06:36:07;;;;;;;27.70;14.07;;;;;;;2.50;100.00;99665.22;4942349;28;20517;-78
2023/01/30 06:38:34;;;;;;;28.57;13.30;;;;;;;2.63;100.00;99660.00;4960278;28;20046;-78
2023/01/30 06:41:01;;;;;;;29.47;13.93;;;;;;;2.60;100.00;99654.75;4973825;28;20038;-78
2023/01/30 06:43:27;;;;;;;25.23;13.10;;;;;;;2.61;100.00;99657.41;4955365;28;20455;-78
2023/01/30 06:45:54;;;;;;;26.13;13.83;;;;;;;2.66;100.00;99659.97;4943735;28;20043;-78
2023/01/30 06:48:20;;;;;;;27.87;14.30;;;;;;;2.65;100.00;99659.09;4994079;28;20451;-79
2023/01/30 06:50:47;;;;;;;24.57;13.30;;;;;;;2.69;100.00;99665.16;4964479;28;20081;-79
2023/01/30 06:53:14;;;;;;;29.63;14.63;;;;;;;2.73;100.00;99651.25;4965322;28;20049;-80
2023/01/30 06:55:40;;;;;;;27.60;13.73;;;;;;;2.69;100.00;99657.31;4970244;28;20042;-80
2023/01/30 06:58:09;;;;;;;28.17;13.53;;;;;;;2.74;100.00;99651.22;4962614;28;20043;-79
2023/01/30 07:00:38;;;;;;;25.40;13.03;;;;;;;2.79;100.00;99657.31;4963803;28;20042;-79
2023/01/30 07:03:10;;;;;;;25.10;12.90;;;;;;;2.82;100.00;99657.28;4943909;28;20050;-80
2023/01/30 07:05:41;;;;;;;23.70;12.03;;;;;;;2.77;100.00;99656.41;4947081;28;20042;-79
2023/01/30 07:08:08;;;;;;;26.33;13.63;;;;;;;2.91;100.00;99643.31;4980471;28;20046;-80
2023/01/30 07:10:35;;;;;;;24.37;12.07;;;;;;;2.89;100.00;99633.78;4967857;28;20484;-80
2023/01/30 07:13:02;;;;;;;26.17;13.03;;;;;;;2.89;100.00;99631.16;4936839;28;20110;-80
2023/01/30 07:15:30;;;;;;;28.87;12.73;;;;;;;2.95;100.00;99631.13;4966737;28;20050;-80
2023/01/30 07:17:57;;;;;;;24.90;13.20;;;;;;;2.95;100.00;99636.34;4951138;28;20046;-80
2023/01/30 07:20:24;;;;;;;21.33;12.17;;;;;;;3.00;100.00;99645.00;4981897;28;20034;-79
2023/01/30 07:22:51;;;;;;;25.03;12.80;;;;;;;3.04;100.00;99633.69;4966500;28;20046;-80
2023/01/30 07:25:20;;;;;;;23.90;12.00;;;;;;;3.01;100.00;99636.28;4957391;28;20057;-80
2023/01/30 07:27:59;;;;;;;22.80;12.20;;;;;;;3.08;100.00;99645.81;4930292;28;20070;-80
2023/01/30 07:30:28;;;;;;;22.53;12.10;;;;;;;3.12;100.00;99652.75;4965225;28;20057;-80
2023/01/30 07:32:56;;;;;;;20.43;11.83;;;;;;;3.15;100.00;99659.69;4986708;28;20042;-79
2023/01/30 07:35:25;;;;;;;20.87;11.20;;;;;;;3.15;100.00;99663.16;4965127;28;20062;-80
2023/01/30 07:37:52;;;;;;;22.80;12.10;;;;;;;3.18;100.00;99657.91;4965019;28;20069;-79
2023/01/30 07:40:19;;;;;;;20.97;11.40;;;;;;;3.19;100.00;99671.84;4979376;28;20042;-79
2023/01/30 07:42:59;;;;;;;21.03;11.10;;;;;;;3.20;100.00;99663.16;4963188;28;20134;-80
2023/01/30 07:45:34;;;;;;;18.97;10.80;;;;;;;3.17;100.00;99664.03;4980033;28;20046;-79
2023/01/30 07:48:01;;;;;;;23.17;13.27;;;;;;;3.16;100.00;99669.25;4964523;28;20129;-80
2023/01/30 07:50:28;;;;;;;23.77;11.40;;;;;;;3.23;100.00;99670.97;4977491;28;20045;-80
2023/01/30 07:52:54;;;;;;;20.73;11.37;;;;;;;3.22;100.00;99664.00;4979860;28;20048;-79
2023/01/30 07:55:21;;;;;;;19.00;11.03;;;;;;;3.26;100.00;99679.63;4944850;28;20074;-79
2023/01/30 07:57:48;;;;;;;17.97;9.73;;;;;;;3.27;100.00;99670.91;4975080;28;20050;-79
2023/01/30 08:00:15;;;;;;;22.40;12.13;;;;;;;3.20;100.00;99661.41;4947450;28;20053;-79
2023/01/30 08:02:42;;;;;;;16.93;10.03;;;;;;;3.18;100.00;99676.19;4968327;28;20137;-80
2023/01/30 08:05:09;;;;;;;18.07;10.23;;;;;;;3.22;100.00;99677.06;4940552;28;20514;-79
2023/01/30 08:07:35;;;;;;;15.00;8.80;;;;;;;3.22;100.00;99677.06;4929201;28;20042;-80
2023/01/30 08:10:02;;;;;;;17.57;8.63;;;;;;;3.26;100.00;99669.19;4953604;28;20050;-80
2023/01/30 08:12:29;;;;;;;14.77;7.97;;;;;;;3.30;100.00;99681.34;4964084;28;20042;-79
2023/01/30 08:14:56;;;;;;;13.70;7.40;;;;;;;3.43;100.00;99681.25;4946923;28;20038;-79
2023/01/30 08:17:22;;;;;;;14.53;8.03;;;;;;;3.41;100.00;99672.56;4995649;28;20054;-80
2023/01/30 08:19:49;;;;;;;15.17;7.53;;;;;;;3.56;100.00;99669.84;4961444;28;20039;-80
2023/01/30 08:22:16;;;;;;;12.80;6.80;;;;;;;3.57;100.00;99674.19;4944014;28;20121;-79
2023/01/30 08:24:42;;;;;;;12.30;6.63;;;;;;;3.62;100.00;99668.06;4977745;28;20051;-79
2023/01/30 08:27:09;;;;;;;13.50;7.47;;;;;;;3.65;100.00;99670.63;4970803;28;20407;-80
2023/01/30 08:29:35;;;;;;;12.57;7.13;;;;;;;3.70;100.00;99667.09;4979147;28;20042;-79
2023/01/30 08:32:02;;;;;;;9.20;5.53;;;;;;;3.72;100.00;99670.59;4978133;28;20042;-80
2023/01/30 08:34:29;;;;;;;10.20;6.00;;;;;;;3.66;100.00;99669.75;4943190;28;20046;-80
2023/01/30 08:36:56;;;;;;;13.13;6.20;;;;;;;3.78;100.00;99663.53;4975327;28;20121;-80
2023/01/30 08:39:22;;;;;;;8.27;5.40;;;;;;;3.76;100.00;99664.44;4946492;28;20046;-79
2023/01/30 08:41:49;;;;;;;8.33;4.97;;;;;;;3.87;100.00;99671.31;4959504;28;20058;-79
2023/01/30 08:44:16;;;;;;;9.00;5.23;;;;;;;3.80;100.00;99661.81;4969268;28;20042;-80
2023/01/30 08:46:42;;;;;;;9.73;5.20;;;;;;;3.98;100.00;99655.53;4962640;28;20752;-80
2023/01/30 08:49:09;;;;;;;10.20;4.70;;;;;;;3.91;100.00;99666.91;4962619;28;20076;-79
2023/01/30 08:51:37;;;;;;;9.60;5.00;;;;;;;3.92;100.00;99663.44;4964346;28;20042;-80
2023/01/30 08:54:06;;;;;;;8.20;3.90;;;;;;;3.90;100.00;99670.41;4945197;28;20050;-81
2023/01/30 08:56:33;;;;;;;8.50;4.70;;;;;;;3.93;100.00;99668.63;4953063;28;20109;-79
2023/01/30 08:59:00;;;;;;;6.43;4.60;;;;;;;4.04;100.00;99665.94;4959754;28;20039;-79
2023/01/30 09:01:26;;;;;;;7.53;3.80;;;;;;;3.99;100.00;99662.50;4967365;28;20038;-80
2023/01/30 09:03:53;;;;;;;9.83;4.87;;;;;;;4.04;100.00;99658.09;4962934;28;20137;-79
2023/01/30 09:06:19;;;;;;;6.87;4.27;;;;;;;4.04;100.00;99652.88;4975073;28;20050;-79
2023/01/30 09:08:46;;;;;;;6.77;3.77;;;;;;;4.11;100.00;99662.34;4962961;28;20077;-79
2023/01/30 09:11:13;;;;;;;6.57;4.30;;;;;;;4.12;100.00;99665.81;4978992;28;20081;-79
2023/01/30 09:13:43;;;;;;;8.97;4.03;;;;;;;4.14;100.00;99666.69;4996105;28;20058;-79
2023/01/30 09:16:10;;;;;;;9.30;3.83;;;;;;;4.12;100.00;99658.88;4997118;28;20125;-79
2023/01/30 09:18:39;;;;;;;6.37;3.17;;;;;;;4.19;100.00;99657.03;4973977;28;20054;-80
2023/01/30 09:21:06;;;;;;;7.60;3.27;;;;;;;4.17;100.00;99662.28;4963830;28;20039;-79
2023/01/30 09:23:33;;;;;;;6.13;3.00;;;;;;;4.16;100.00;99668.41;4946441;28;20034;-80
2023/01/30 09:26:01;;;;;;;8.97;3.33;;;;;;;4.21;100.00;99666.63;4963162;28;20945;-80
2023/01/30 09:28:28;;;;;;;9.03;3.63;;;;;;;4.18;100.00;99664.03;4992471;28;20042;-79
2023/01/30 09:30:58;;;;;;;7.80;2.70;;;;;;;4.17;100.00;99659.69;4960667;28;20039;-80
2023/01/30 09:33:26;;;;;;;6.50;3.23;;;;;;;4.30;100.00;99664.78;4965662;28;20072;-80
2023/01/30 09:35:53;;;;;;;7.27;2.57;;;;;;;4.30;100.00;99651.72;4976152;28;20052;-77
2023/01/30 09:38:20;;;;;;;6.37;2.40;;;;;;;4.47;100.00;99653.25;4953624;28;20491;-79
2023/01/30 09:40:59;;;;;;;9.07;3.73;;;;;;;4.50;100.00;99652.34;4965297;28;20055;-79
2023/01/30 09:43:42;;;;;;;8.57;3.73;;;;;;;4.56;100.00;99647.03;4953178;28;20031;-79
2023/01/30 09:47:01;;;;;;;4.87;2.90;;;;;;;4.69;100.00;99655.59;4965755;28;20041;-79
2023/01/30 09:49:56;;;;;;;4.93;2.53;;;;;;;4.75;100.00;99645.91;4962413;28;20050;-80
2023/01/30 09:52:53;;;;;;;4.53;2.20;;;;;;;4.82;100.00;99656.31;4972461;28;21833;-80
2023/01/30 09:55:22;;;;;;;10.33;3.23;;;;;;;4.71;100.00;99649.47;4955098;28;20053;-80
2023/01/30 09:57:49;;;;;;;3.57;2.30;;;;;;;4.63;100.00;99646.09;4940505;28;20042;-80
2023/01/30 10:00:41;;;;;;;3.90;1.87;;;;;;;4.59;100.00;99656.59;4950746;28;20066;-80
2023/01/30 10:03:07;;;;;;;7.60;1.97;;;;;;;4.58;100.00;99660.09;4943123;28;20084;-79
2023/01/30 10:05:41;;;;;;;6.97;2.40;;;;;;;4.53;100.00;99655.78;4955337;28;20632;-80
2023/01/30 10:08:38;;;;;;;7.18;2.20;;;;;;;4.50;100.00;99634.91;4952722;28;20042;-79
2023/01/30 10:11:17;;;;;;;5.70;2.40;;;;;;;4.42;100.00;99641.97;4986927;28;20042;-80
2023/01/30 10:14:00;;;;;;;5.97;2.03;;;;;;;4.44;100.00;99634.97;4957611;28;20545;-81
2023/01/30 10:16:44;;;;;;;6.77;2.27;;;;;;;4.43;100.00;99643.69;4972816;28;20046;-80
2023/01/30 10:19:31;;;;;;;8.80;2.03;;;;;;;4.49;100.00;99646.25;4959580;28;20043;-80
2023/01/30 10:22:23;;;;;;;6.53;2.40;;;;;;;4.52;100.00;99640.97;4963330;28;20045;-80
2023/01/30 10:25:28;;;;;;;6.90;2.63;;;;;;;4.46;100.00;99669.84;4954132;28;20046;-81
2023/01/30 10:28:05;;;;;;;6.77;2.30;;;;;;;4.35;100.00;99657.75;4996082;28;20027;-80
2023/01/30 10:30:32;;;;;;;3.10;1.83;;;;;;;4.18;100.00;99655.31;4945821;28;20042;-79
2023/01/30 10:33:29;;;;;;;6.37;2.27;;;;;;;4.18;100.00;99653.56;4977675;28;20039;-80
2023/01/30 10:36:03;;;;;;;9.07;2.60;;;;;;;4.13;100.00;99665.84;4957091;28;20058;-81
2023/01/30 10:38:39;;;;;;;5.60;2.45;;;;;;;4.08;100.00;99640.63;4969453;28;20043;-80
2023/01/30 10:41:11;;;;;;;6.17;2.50;;;;;;;4.05;100.00;99643.28;4944373;28;20125;-80
2023/01/30 10:43:44;;;;;;;7.47;3.00;;;;;;;4.11;100.00;99624.91;4952288;28;20038;-80
2023/01/30 10:46:21;;;;;;;9.57;2.33;;;;;;;4.12;100.00;99622.28;4954918;28;20098;-79
2023/01/30 10:48:50;;;;;;;9.10;3.07;;;;;;;4.03;100.00;99605.81;4954757;28;20051;-81
2023/01/30 10:51:24;;;;;;;10.13;6.40;;;;;;;3.98;100.00;99599.78;4933433;28;20602;-81
2023/01/30 10:54:04;;;;;;;8.23;4.20;;;;;;;3.93;100.00;99576.31;4949226;28;20492;-80
2023/01/30 10:56:41;;;;;;;10.10;8.93;;;;;;;4.04;100.00;99570.97;4974149;28;20049;-81
2023/01/30 10:59:45;;;;;;;12.73;7.30;;;;;;;4.10;100.00;99583.97;4953353;28;20101;-80
2023/01/30 11:02:34;;;;;;;7.90;5.33;;;;;;;4.11;100.00;99610.06;4954005;28;20026;-81
2023/01/30 11:05:29;;;;;;;11.33;3.60;;;;;;;4.01;100.00;99626.75;4932466;28;20078;-80
2023/01/30 11:07:56;;;;;;;5.22;3.38;;;;;;;3.96;100.00;99618.09;4961361;28;20050;-82
2023/01/30 11:10:26;;;;;;;7.23;3.03;;;;;;;3.95;100.00;99612.03;4948389;28;20612;-81
2023/01/30 11:13:09;;;;;;;6.10;1.80;;;;;;;4.02;100.00;99611.94;4956748;28;20045;-81
2023/01/30 11:15:40;;;;;;;4.27;2.00;;;;;;;3.95;100.00;99598.94;4946693;28;20097;-80
2023/01/30 11:18:07;;;;;;;33.10;14.27;;;;;;;4.03;100.00;99590.13;4952204;28;20043;-80
2023/01/30 11:21:05;;;;;;;243.77;85.73;;;;;;;4.07;100.00;99587.47;4965549;28;20476;-80
2023/01/30 11:23:34;;;;;;;26.77;9.23;;;;;;;4.20;100.00;99590.81;4972339;28;20035;-80
2023/01/30 11:26:02;;;;;;;8.37;2.70;;;;;;;4.21;100.00;99593.44;4959901;28;20046;-81
2023/01/30 11:28:41;;;;;;;4.10;1.80;;;;;;;4.32;100.00;99577.59;4943398;28;20423;-82
2023/01/30 11:31:34;;;;;;;16.57;8.07;;;;;;;4.37;100.00;99585.38;4942022;28;20122;-80
2023/01/30 11:34:14;;;;;;;20.10;9.47;;;;;;;4.35;100.00;99590.63;4945145;28;20133;-79
2023/01/30 11:36:41;;;;;;;24.98;10.98;;;;;;;4.29;100.00;99595.94;4975121;28;20041;-80
2023/01/30 11:39:14;;;;;;;67.10;24.50;;;;;;;4.30;100.00;99581.13;4956469;28;20074;-80
2023/01/30 11:41:54;;;;;;;8.05;3.00;;;;;;;4.29;100.00;99575.03;4976783;28;20041;-81
2023/01/30 11:44:35;;;;;;;13.37;4.27;;;;;;;4.29;100.00;99588.09;4976409;28;20039;-80
2023/01/30 11:47:06;;;;;;;18.37;9.23;;;;;;;4.22;100.00;99576.84;4960272;28;20534;-81